sim
Sign-in with your pilot id or email,
or register
Callsign
Passwort

Schedule Details

Flight Number: DLH2161
Departure: Nuremberg Airport (EDDN) at 15:20
Arrival: Munich Airport (EDDM) at 16:00
Route: Lufthansa Passenger Schedule. Enter filed route here before submitting Pirep.

Weather Information
Getting current METAR information for EDDN 010420Z 10005KT 9999 BCFG NSC 05/05 Q1009 NOSIG
Getting current METAR information for EDDM 010420Z 07001KT 0700 R08L/0450N R08R/0700N FG FEW001 03/03 Q1009 BECMG 0500 BKN001

Schedule Frequency

Route Map